Time;durP1;ratioP1;P1;durP2;ratioP2;P2;SDS_P1;SDS_P2;PMS_P1;PMS_P2;Temp;Humidity;BMP_temperature;BMP_pressure;BME280_temperature;BME280_humidity;BME280_pressure;Samples;Min_cycle;Max_cycle;Signal;HPM_P1;HPM_P2
2022/12/21 00:01:38;;;;;;;30.17;10.85;;;;;;;7.00;100.00;101049.88;5069538;28;20029;-40
2022/12/21 00:04:04;;;;;;;39.53;10.50;;;;;;;6.99;100.00;101058.03;5059194;28;20028;-41
2022/12/21 00:06:32;;;;;;;30.10;9.82;;;;;;;6.92;100.00;101056.97;5062967;28;20032;-41
2022/12/21 00:08:59;;;;;;;30.20;10.55;;;;;;;6.87;100.00;101053.91;5053065;28;20567;-41
2022/12/21 00:11:26;;;;;;;31.73;10.45;;;;;;;6.80;100.00;101048.34;5064212;28;20025;-41
2022/12/21 00:13:54;;;;;;;28.75;10.80;;;;;;;6.78;100.00;101056.50;5057780;28;20029;-42
2022/12/21 00:16:21;;;;;;;27.88;10.77;;;;;;;6.78;100.00;101053.00;5067711;28;20387;-41
2022/12/21 00:18:47;;;;;;;25.10;10.68;;;;;;;6.75;100.00;101046.13;5063853;28;20035;-42
2022/12/21 00:21:14;;;;;;;28.15;10.55;;;;;;;6.71;100.00;101050.06;5066510;28;20021;-41
2022/12/21 00:23:43;;;;;;;25.63;10.77;;;;;;;6.68;100.00;101045.03;5066742;28;20025;-41
2022/12/21 00:26:10;;;;;;;27.60;10.43;;;;;;;6.70;100.00;101036.88;5059905;28;20235;-42
2022/12/21 00:28:36;;;;;;;27.13;10.93;;;;;;;6.68;100.00;101034.34;5064411;28;20606;-41
2022/12/21 00:31:06;;;;;;;29.95;10.57;;;;;;;6.65;100.00;101029.28;5054263;28;20112;-41
2022/12/21 00:33:32;;;;;;;28.13;9.65;;;;;;;6.58;100.00;101022.84;5055725;28;20029;-41
2022/12/21 00:35:58;;;;;;;26.83;10.32;;;;;;;6.51;100.00;101025.31;5055475;28;20396;-41
2022/12/21 00:38:24;;;;;;;20.02;9.32;;;;;;;6.48;100.00;101022.09;5074349;28;20037;-42
2022/12/21 00:40:59;;;;;;;28.30;10.18;;;;;;;6.40;100.00;101020.19;5074567;28;20036;-41
2022/12/21 00:43:25;;;;;;;26.63;9.30;;;;;;;6.32;100.00;101023.59;5056967;28;20112;-42
2022/12/21 00:45:50;;;;;;;25.85;9.02;;;;;;;6.21;100.00;101029.13;5073602;28;20451;-41
2022/12/21 00:48:16;;;;;;;25.67;8.93;;;;;;;6.13;100.00;101024.56;5071674;28;20033;-41
2022/12/21 00:50:41;;;;;;;25.55;9.50;;;;;;;6.01;100.00;101024.91;5072851;28;20028;-41
2022/12/21 00:53:08;;;;;;;25.35;10.43;;;;;;;5.94;100.00;101025.47;5061903;28;20106;-41
2022/12/21 00:55:34;;;;;;;19.00;9.07;;;;;;;5.89;100.00;101021.53;5073105;28;20403;-41
2022/12/21 00:58:00;;;;;;;19.35;8.88;;;;;;;5.83;100.00;101016.78;5058999;28;20029;-41
2022/12/21 01:00:25;;;;;;;21.40;9.45;;;;;;;5.79;100.00;101015.38;5052728;28;20029;-41
2022/12/21 01:02:50;;;;;;;25.67;10.73;;;;;;;5.77;100.00;101014.72;5052493;28;20040;-41
2022/12/21 01:05:16;;;;;;;29.85;10.90;;;;;;;5.68;100.00;101011.06;5053013;28;20116;-41
2022/12/21 01:07:41;;;;;;;29.60;10.05;;;;;;;5.64;100.00;101004.34;5064833;28;20025;-42
2022/12/21 01:10:08;;;;;;;21.48;11.13;;;;;;;5.58;100.00;101007.59;5073194;28;20334;-42
2022/12/21 01:12:34;;;;;;;23.02;10.88;;;;;;;5.57;100.00;101011.25;5062650;28;20083;-41
2022/12/21 01:14:59;;;;;;;39.35;11.48;;;;;;;5.52;100.00;101011.69;5052771;28;20500;-42
2022/12/21 01:17:24;;;;;;;24.33;10.50;;;;;;;5.47;100.00;101024.63;5061272;28;20032;-42
2022/12/21 01:19:49;;;;;;;30.92;12.68;;;;;;;5.43;100.00;101016.06;5072809;28;20028;-42
2022/12/21 01:22:15;;;;;;;27.23;10.75;;;;;;;5.39;100.00;101017.31;5066345;28;20104;-41
2022/12/21 01:24:41;;;;;;;33.38;11.55;;;;;;;5.34;100.00;101016.06;5054299;28;20028;-41
2022/12/21 01:27:06;;;;;;;19.42;11.35;;;;;;;5.32;100.00;101010.91;5058773;28;20043;-40
2022/12/21 01:29:31;;;;;;;35.85;17.33;;;;;;;5.33;100.00;101028.59;5067579;28;20052;-41
2022/12/21 01:31:57;;;;;;;37.90;17.40;;;;;;;5.30;100.00;101020.88;5057798;28;20040;-41
2022/12/21 01:34:22;;;;;;;36.58;19.45;;;;;;;5.32;100.00;101029.59;5072513;28;20039;-40
2022/12/21 01:36:47;;;;;;;25.08;15.07;;;;;;;5.32;100.00;101028.72;5065891;28;20028;-41
2022/12/21 01:39:13;;;;;;;27.17;14.48;;;;;;;5.31;100.00;101033.22;5068954;28;20028;-41
2022/12/21 01:41:38;;;;;;;25.52;13.43;;;;;;;5.25;100.00;101041.81;5061540;28;20047;-41
2022/12/21 01:44:04;;;;;;;25.55;14.77;;;;;;;5.17;100.00;101037.19;5050299;28;20021;-42
2022/12/21 01:46:45;;;;;;;32.42;17.60;;;;;;;5.10;100.00;101040.56;5060602;28;20033;-42
2022/12/21 01:49:21;;;;;;;40.67;17.40;;;;;;;5.09;100.00;101045.06;5053131;28;20116;-41
2022/12/21 01:52:03;;;;;;;36.72;18.73;;;;;;;5.09;100.00;101039.72;5068154;28;20033;-42
2022/12/21 01:54:38;;;;;;;31.05;17.35;;;;;;;5.09;100.00;101033.53;5054529;28;20097;-42
2022/12/21 01:57:05;;;;;;;39.55;18.73;;;;;;;5.12;100.00;101039.44;5062086;28;20037;-41
2022/12/21 01:59:37;;;;;;;35.45;18.02;;;;;;;5.14;100.00;101042.81;5051868;28;20061;-41
2022/12/21 02:02:12;;;;;;;34.22;16.63;;;;;;;5.15;100.00;101039.13;5051281;28;20083;-41
2022/12/21 02:04:39;;;;;;;35.13;17.02;;;;;;;5.04;100.00;101021.47;5050284;28;20105;-41
2022/12/21 02:07:04;;;;;;;30.85;16.88;;;;;;;4.96;100.00;101031.16;5061553;28;20029;-41
2022/12/21 02:09:34;;;;;;;27.83;15.85;;;;;;;4.84;100.00;101039.31;5050056;28;20488;-41
2022/12/21 02:12:03;;;;;;;33.65;16.23;;;;;;;4.77;100.00;101034.66;5057798;28;20163;-41
2022/12/21 02:14:30;;;;;;;30.52;16.65;;;;;;;4.75;100.00;101036.63;5051979;28;20025;-41
2022/12/21 02:17:36;;;;;;;31.42;17.35;;;;;;;4.79;100.00;101028.22;5050207;28;20434;-41
2022/12/21 02:20:39;;;;;;;28.92;17.42;;;;;;;4.81;100.00;101033.38;5049969;28;20454;-40
2022/12/21 02:23:17;;;;;;;31.88;16.70;;;;;;;4.88;100.00;101026.53;5062456;28;20120;-41
2022/12/21 02:26:38;;;;;;;33.95;17.80;;;;;;;4.92;100.00;101027.91;5060184;28;20037;-41
2022/12/21 02:29:27;;;;;;;34.55;18.13;;;;;;;4.97;100.00;101023.00;5049295;28;20041;-42
2022/12/21 02:31:55;;;;;;;52.40;17.75;;;;;;;5.03;100.00;101030.47;5053156;28;20068;-41
2022/12/21 02:34:23;;;;;;;90.50;19.30;;;;;;;5.06;100.00;101026.66;5061391;28;20029;-41
2022/12/21 02:37:02;;;;;;;48.80;19.80;;;;;;;5.14;100.00;101029.47;5059078;28;20491;-41
2022/12/21 02:39:43;;;;;;;58.03;20.42;;;;;;;5.13;100.00;101040.25;5034096;28;20033;-41
2022/12/21 02:45:39;;;;;;;49.25;18.40;;;;;;;5.09;100.00;101025.53;5080309;28;20047;-41
2022/12/21 02:48:09;;;;;;;37.95;17.85;;;;;;;5.09;100.00;101025.53;5062153;28;20052;-41
2022/12/21 02:50:38;;;;;;;41.70;17.60;;;;;;;5.06;100.00;101030.16;5049066;28;20028;-41
2022/12/21 02:53:07;;;;;;;40.22;16.25;;;;;;;5.03;100.00;101024.28;5050300;28;20029;-41
2022/12/21 02:55:33;;;;;;;49.55;16.00;;;;;;;4.96;100.00;101020.50;5052340;28;20037;-41
2022/12/21 02:58:12;;;;;;;37.63;14.88;;;;;;;4.90;100.00;101029.91;5059255;28;20377;-41
2022/12/21 03:00:45;;;;;;;33.97;16.25;;;;;;;4.94;100.00;101023.28;5050378;28;20067;-42
2022/12/21 03:03:48;;;;;;;49.08;15.35;;;;;;;4.99;100.00;101023.72;5049312;28;20064;-41
2022/12/21 03:06:35;;;;;;;38.08;16.15;;;;;;;5.06;100.00;101032.84;5057142;28;20028;-41
2022/12/21 03:09:31;;;;;;;38.17;16.30;;;;;;;5.12;100.00;101025.25;5050782;28;20116;-41
2022/12/21 03:12:13;;;;;;;37.25;16.30;;;;;;;5.14;100.00;101015.28;5050473;28;20033;-41
2022/12/21 03:14:40;;;;;;;35.83;15.65;;;;;;;5.13;100.00;101005.59;5050608;28;20064;-41
2022/12/21 03:17:16;;;;;;;64.65;16.20;;;;;;;5.12;100.00;101011.91;5051221;28;20462;-41
2022/12/21 03:19:55;;;;;;;65.72;16.38;;;;;;;5.00;100.00;101000.53;5048918;28;20158;-42
2022/12/21 03:22:48;;;;;;;48.78;15.48;;;;;;;4.92;100.00;100997.75;5049581;28;20029;-42
2022/12/21 03:25:22;;;;;;;62.03;14.75;;;;;;;4.82;100.00;100997.75;5062806;28;20514;-41
2022/12/21 03:27:51;;;;;;;44.08;14.45;;;;;;;4.73;100.00;101002.09;5052732;28;20140;-41
2022/12/21 03:30:18;;;;;;;34.35;15.15;;;;;;;4.73;100.00;100996.75;5050244;28;20021;-41
2022/12/21 03:32:54;;;;;;;29.50;14.55;;;;;;;4.75;100.00;100989.47;5053041;28;20049;-41
2022/12/21 03:35:35;;;;;;;26.58;14.75;;;;;;;4.70;100.00;100993.53;5050199;28;20014;-41
2022/12/21 03:38:03;;;;;;;38.33;15.48;;;;;;;4.69;100.00;100998.03;5068036;28;20072;-41
2022/12/21 03:40:28;;;;;;;;;;;;;;;4.62;100.00;100995.06;5067652;28;20426;-42
2022/12/21 03:43:28;;;;;;;56.13;14.57;;;;;;;4.59;100.00;100995.34;5067949;28;19935;-42
2022/12/21 03:45:57;;;;;;;46.30;15.07;;;;;;;4.62;100.00;100992.41;5060988;28;20063;-42
2022/12/21 03:48:40;;;;;;;118.60;14.88;;;;;;;4.65;100.00;100995.78;5068623;28;20036;-41
2022/12/21 03:51:16;;;;;;;46.33;14.85;;;;;;;4.71;100.00;100997.88;5070006;28;20020;-41
2022/12/21 03:53:50;;;;;;;58.10;13.88;;;;;;;4.70;100.00;100988.22;5068163;28;20031;-42
2022/12/21 03:56:22;;;;;;;90.78;13.57;;;;;;;4.74;100.00;100992.25;5065455;28;20136;-41
2022/12/21 03:58:48;;;;;;;76.78;15.60;;;;;;;4.75;100.00;101000.13;5048655;28;20021;-42
2022/12/21 04:01:32;;;;;;;112.32;14.15;;;;;;;4.74;100.00;100992.25;5062715;28;20020;-41
2022/12/21 04:04:04;;;;;;;91.72;11.98;;;;;;;4.69;100.00;100984.72;5069145;28;20427;-42
2022/12/21 04:06:32;;;;;;;80.45;12.32;;;;;;;4.70;100.00;100981.06;5063048;28;20040;-41
2022/12/21 04:08:57;;;;;;;;;;;;;;;4.67;100.00;100983.16;5057827;28;20552;-42
2022/12/21 04:14:06;;;;;;;28.08;11.82;;;;;;;4.65;100.00;100977.13;5063643;28;20040;-41
2022/12/21 04:16:31;;;;;;;29.88;11.30;;;;;;;4.67;100.00;100973.34;5066837;28;20451;-41
2022/12/21 04:21:41;;;;;;;31.60;11.02;;;;;;;4.69;100.00;100973.22;5051664;28;20105;-41
2022/12/21 04:29:36;;;;;;;27.85;12.48;;;;;;;4.56;100.00;100974.31;5069744;28;20063;-41
2022/12/21 04:32:01;;;;;;;25.15;12.93;;;;;;;4.54;100.00;100981.59;5068934;28;20467;-41
2022/12/21 04:34:26;;;;;;;45.38;15.38;;;;;;;4.62;100.00;100979.09;5061000;28;20291;-41
2022/12/21 04:39:36;;;;;;;23.75;12.15;;;;;;;4.75;100.00;100983.31;5070912;28;20522;-42
2022/12/21 04:42:01;;;;;;;37.47;14.93;;;;;;;4.76;100.00;100982.31;5073021;28;20025;-42
2022/12/21 04:44:26;;;;;;;27.38;13.07;;;;;;;4.79;100.00;100987.34;5067742;28;20050;-42
2022/12/21 04:46:52;;;;;;;35.28;16.33;;;;;;;4.90;100.00;100992.56;5065642;28;20111;-42
2022/12/21 04:49:17;;;;;;;63.95;19.73;;;;;;;4.99;100.00;100990.88;5055753;28;20052;-42
2022/12/21 04:51:42;;;;;;;65.72;21.35;;;;;;;5.12;100.00;100998.56;5055577;28;20052;-42
2022/12/21 04:54:08;;;;;;;66.28;22.55;;;;;;;5.18;100.00;100995.31;5055758;28;20040;-42
2022/12/21 04:56:33;;;;;;;56.33;20.70;;;;;;;5.27;100.00;100997.16;5056580;28;20051;-41
2022/12/21 04:58:58;;;;;;;52.35;20.45;;;;;;;5.31;100.00;101001.19;5055086;28;20488;-41
2022/12/21 05:01:24;;;;;;;54.47;21.73;;;;;;;5.35;100.00;100997.28;5054778;28;20041;-42
2022/12/21 05:03:50;;;;;;;51.85;21.42;;;;;;;5.36;100.00;100982.94;5065959;28;20028;-42
2022/12/21 05:06:17;;;;;;;50.53;20.27;;;;;;;5.32;100.00;100972.69;5072928;28;20036;-42
2022/12/21 05:08:42;;;;;;;61.03;23.42;;;;;;;5.36;100.00;100982.94;5073630;28;20031;-42
2022/12/21 05:11:19;;;;;;;54.28;22.88;;;;;;;5.41;100.00;100980.66;5073284;28;20032;-42
2022/12/21 05:13:45;;;;;;;71.60;24.75;;;;;;;5.44;100.00;100982.19;5062454;28;20399;-42
2022/12/21 05:16:14;;;;;;;58.17;23.33;;;;;;;5.49;100.00;100983.44;5068196;28;20065;-43
2022/12/21 05:18:39;;;;;;;64.90;25.77;;;;;;;5.50;100.00;100979.81;5058003;28;20110;-40
2022/12/21 05:21:05;;;;;;;62.60;25.67;;;;;;;5.54;100.00;100974.16;5052728;28;20067;-41
2022/12/21 05:23:30;;;;;;;62.20;26.38;;;;;;;5.52;100.00;100976.97;5055272;28;20476;-41
2022/12/21 05:25:55;;;;;;;70.32;28.05;;;;;;;5.49;100.00;100978.09;5068861;28;20036;-43
2022/12/21 05:28:21;;;;;;;70.72;27.20;;;;;;;5.50;100.00;100982.47;5072166;28;20036;-42
2022/12/21 05:30:46;;;;;;;69.15;28.77;;;;;;;5.51;100.00;100983.31;5072017;28;20029;-41
2022/12/21 05:33:11;;;;;;;70.30;28.27;;;;;;;5.51;100.00;100980.66;5061697;28;20551;-41
2022/12/21 05:35:40;;;;;;;75.45;29.48;;;;;;;5.53;100.00;100977.81;5072146;28;20310;-41
2022/12/21 05:38:06;;;;;;;78.72;29.50;;;;;;;5.53;100.00;100983.16;5071427;28;20028;-41
2022/12/21 05:40:33;;;;;;;83.18;30.15;;;;;;;5.54;100.00;100984.84;5072020;28;20352;-41
2022/12/21 05:42:58;;;;;;;125.07;30.95;;;;;;;5.55;100.00;100984.69;5070241;28;20476;-42
2022/12/21 05:45:24;;;;;;;72.90;29.27;;;;;;;5.56;100.00;100967.69;5057605;28;20027;-41
2022/12/21 05:47:49;;;;;;;72.68;30.20;;;;;;;5.61;100.00;100976.13;5059731;28;20025;-42
2022/12/21 05:50:14;;;;;;;89.93;28.90;;;;;;;5.57;100.00;100973.88;5058199;28;20060;-41
2022/12/21 05:52:40;;;;;;;79.30;29.75;;;;;;;5.60;100.00;100962.91;5059978;28;20033;-41
2022/12/21 05:55:05;;;;;;;71.05;26.60;;;;;;;5.59;100.00;100967.41;5058089;28;20028;-41
2022/12/21 05:57:31;;;;;;;76.80;28.70;;;;;;;5.58;100.00;100959.53;5054504;28;20110;-40
2022/12/21 05:59:56;;;;;;;71.20;29.23;;;;;;;5.55;100.00;100960.66;5061904;28;20040;-41
2022/12/21 06:02:21;;;;;;;60.67;26.83;;;;;;;5.52;100.00;100955.63;5061792;28;20065;-41
2022/12/21 06:04:47;;;;;;;76.75;27.42;;;;;;;5.62;100.00;100956.44;5066111;28;20461;-41
2022/12/21 06:07:12;;;;;;;58.58;25.58;;;;;;;5.60;100.00;100965.56;5064630;28;20468;-41
2022/12/21 06:09:37;;;;;;;72.43;26.83;;;;;;;5.60;100.00;100968.25;5058830;28;20492;-42
2022/12/21 06:12:03;;;;;;;74.85;27.42;;;;;;;5.62;100.00;100967.09;5071069;28;20024;-41
2022/12/21 06:14:28;;;;;;;69.43;27.38;;;;;;;5.63;100.00;100970.63;5071406;28;20093;-42
2022/12/21 06:16:53;;;;;;;64.32;27.30;;;;;;;5.62;100.00;100968.94;5071536;28;20472;-41
2022/12/21 06:19:19;;;;;;;65.43;27.13;;;;;;;5.62;100.00;100967.09;5063841;28;20034;-41
2022/12/21 06:21:44;;;;;;;68.03;27.38;;;;;;;5.63;100.00;100960.75;5057440;28;20108;-42
2022/12/21 06:24:09;;;;;;;70.07;26.73;;;;;;;5.70;100.00;100961.03;5062165;28;20076;-43
2022/12/21 06:26:35;;;;;;;64.90;25.95;;;;;;;5.68;100.00;100961.16;5050865;28;20025;-43
2022/12/21 06:29:00;;;;;;;58.55;24.73;;;;;;;5.66;100.00;100965.84;5055690;28;20056;-42
2022/12/21 06:31:25;;;;;;;57.92;24.55;;;;;;;5.71;100.00;100962.69;5051968;28;20044;-42
2022/12/21 06:33:51;;;;;;;70.03;26.88;;;;;;;5.68;100.00;100965.66;5069697;28;20028;-42
2022/12/21 06:36:16;;;;;;;59.63;25.13;;;;;;;5.68;100.00;100976.34;5058790;28;20671;-42
2022/12/21 06:38:42;;;;;;;70.75;25.98;;;;;;;5.69;100.00;100983.41;5049714;28;20084;-42
2022/12/21 06:41:13;;;;;;;74.00;25.23;;;;;;;5.67;100.00;100996.03;5066942;28;20498;-43
2022/12/21 06:43:39;;;;;;;72.80;25.40;;;;;;;5.65;100.00;100992.66;5060813;28;20027;-42
2022/12/21 06:46:07;;;;;;;85.32;28.40;;;;;;;5.66;100.00;100997.00;5070781;28;20024;-42
2022/12/21 06:48:34;;;;;;;75.18;26.90;;;;;;;5.67;100.00;100990.72;5063973;28;20024;-41
2022/12/21 06:51:07;;;;;;;66.72;26.80;;;;;;;5.68;100.00;100984.38;5070756;28;20513;-41
2022/12/21 06:53:35;;;;;;;67.80;26.17;;;;;;;5.72;100.00;100985.75;5067820;28;20024;-42
2022/12/21 06:56:09;;;;;;;73.88;26.08;;;;;;;5.77;100.00;100988.84;5060481;28;20044;-41
2022/12/21 06:58:35;;;;;;;64.93;25.05;;;;;;;5.78;100.00;100992.34;5070731;28;20032;-41
2022/12/21 07:01:09;;;;;;;60.55;24.92;;;;;;;5.79;100.00;100986.84;5068691;28;20045;-42
2022/12/21 07:03:36;;;;;;;61.70;26.02;;;;;;;5.83;100.00;100990.91;5054778;28;20040;-41
2022/12/21 07:06:01;;;;;;;70.40;26.58;;;;;;;5.86;100.00;100995.94;5050716;28;20031;-42
2022/12/21 07:08:27;;;;;;;67.90;25.92;;;;;;;5.87;100.00;101002.13;5050132;28;20112;-42
2022/12/21 07:11:01;;;;;;;80.32;27.08;;;;;;;5.87;100.00;100997.66;5051271;28;20703;-41
2022/12/21 07:13:27;;;;;;;68.80;25.88;;;;;;;5.89;100.00;101006.34;5062458;28;20032;-41
2022/12/21 07:15:53;;;;;;;74.63;27.90;;;;;;;5.89;100.00;101006.34;5061927;28;20021;-41
2022/12/21 07:18:19;;;;;;;82.13;31.30;;;;;;;5.90;100.00;101002.69;5050094;28;20116;-43
2022/12/21 07:20:44;;;;;;;85.32;32.70;;;;;;;5.88;100.00;101004.66;5050201;28;20484;-43
2022/12/21 07:23:09;;;;;;;90.90;34.55;;;;;;;5.87;100.00;101000.31;5050354;28;20029;-43
2022/12/21 07:25:35;;;;;;;92.07;33.22;;;;;;;5.93;100.00;101001.56;5054733;28;20500;-41
2022/12/21 07:28:00;;;;;;;80.43;31.60;;;;;;;5.92;100.00;100992.72;5062689;28;20417;-41
2022/12/21 07:30:26;;;;;;;74.72;31.80;;;;;;;5.98;100.00;100995.78;5060332;28;20040;-43
2022/12/21 07:32:53;;;;;;;84.90;33.38;;;;;;;5.93;100.00;100997.09;5058835;28;20041;-44
2022/12/21 07:35:19;;;;;;;79.93;31.40;;;;;;;5.91;100.00;100984.84;5055647;28;20036;-42
2022/12/21 07:37:44;;;;;;;83.25;31.58;;;;;;;5.87;100.00;100996.78;5062930;28;20298;-42
2022/12/21 07:40:10;;;;;;;84.13;34.70;;;;;;;5.85;100.00;100986.28;5054652;28;20052;-42
2022/12/21 07:42:35;;;;;;;86.45;33.47;;;;;;;5.85;100.00;100990.78;5059101;28;20044;-42
2022/12/21 07:45:01;;;;;;;80.38;34.97;;;;;;;5.83;100.00;100996.25;5031664;28;20115;-42
2022/12/21 07:47:26;;;;;;;100.07;37.42;;;;;;;5.79;100.00;100989.50;5050527;28;20052;-42
2022/12/21 07:49:51;;;;;;;96.38;37.33;;;;;;;5.78;100.00;100995.84;5061328;28;20055;-42
2022/12/21 07:52:17;;;;;;;88.82;35.30;;;;;;;5.82;100.00;100994.59;5054851;28;20039;-42
2022/12/21 07:54:42;;;;;;;93.65;38.13;;;;;;;5.84;100.00;100995.25;5060255;28;20055;-43
2022/12/21 07:57:07;;;;;;;111.25;39.97;;;;;;;5.85;100.00;100998.78;5059671;28;20079;-43
2022/12/21 07:59:33;;;;;;;115.10;40.15;;;;;;;5.86;100.00;101001.28;5061643;28;20036;-42
2022/12/21 08:01:58;;;;;;;99.10;39.78;;;;;;;5.90;100.00;100996.53;5052619;28;20492;-42
2022/12/21 08:04:23;;;;;;;102.28;42.90;;;;;;;5.86;100.00;100995.94;5047931;28;20040;-42
2022/12/21 08:06:50;;;;;;;121.28;42.05;;;;;;;5.84;100.00;101005.94;5060563;28;20556;-43
2022/12/21 08:09:15;;;;;;;113.82;41.33;;;;;;;5.80;100.00;101004.56;5057416;28;20041;-42
2022/12/21 08:11:40;;;;;;;117.25;42.53;;;;;;;5.77;100.00;101004.88;5048844;28;20037;-42
2022/12/21 08:14:06;;;;;;;102.40;40.20;;;;;;;5.78;100.00;101000.34;5057013;28;20190;-44
2022/12/21 08:16:31;;;;;;;100.10;41.72;;;;;;;5.79;100.00;101002.03;5056468;28;20033;-43
2022/12/21 08:18:57;;;;;;;101.47;39.47;;;;;;;5.79;100.00;101005.53;5060205;28;20103;-35
2022/12/21 08:21:22;;;;;;;101.53;38.70;;;;;;;5.80;100.00;101006.41;5064374;28;20060;-35
2022/12/21 08:23:48;;;;;;;107.57;39.83;;;;;;;5.81;100.00;101006.22;5056238;28;20055;-37
2022/12/21 08:26:14;;;;;;;105.38;42.25;;;;;;;5.80;100.00;101012.56;5063962;28;20025;-36
2022/12/21 08:28:40;;;;;;;106.38;41.05;;;;;;;5.83;100.00;101012.28;5074437;28;20084;-35
2022/12/21 08:31:14;;;;;;;95.82;39.60;;;;;;;5.84;100.00;101019.28;5063426;28;20510;-37
2022/12/21 08:33:43;;;;;;;94.05;41.80;;;;;;;5.82;100.00;101026.63;5066033;28;20239;-38
2022/12/21 08:36:17;;;;;;;98.68;38.60;;;;;;;5.83;100.00;101009.59;5062669;28;20548;-37
2022/12/21 08:38:44;;;;;;;93.82;39.22;;;;;;;5.84;100.00;101003.25;5055895;28;20028;-37
2022/12/21 08:41:09;;;;;;;90.40;35.67;;;;;;;5.82;100.00;100997.25;5060180;28;20052;-36
2022/12/21 08:43:35;;;;;;;79.13;35.13;;;;;;;5.86;100.00;100989.78;5073236;28;20063;-36
2022/12/21 08:46:05;;;;;;;90.20;34.45;;;;;;;5.86;100.00;100998.63;5061048;28;20021;-36
2022/12/21 08:48:31;;;;;;;78.50;32.88;;;;;;;5.90;100.00;100991.19;5071488;28;20148;-35
2022/12/21 08:50:56;;;;;;;95.93;34.33;;;;;;;5.90;100.00;100996.53;5061806;28;20572;-37
2022/12/21 08:53:22;;;;;;;79.40;30.60;;;;;;;5.90;100.00;101001.88;5052743;28;20032;-38
2022/12/21 08:55:48;;;;;;;78.30;30.13;;;;;;;5.89;100.00;101006.34;5079227;28;20035;-37
2022/12/21 08:58:13;;;;;;;67.22;29.60;;;;;;;5.97;100.00;101004.81;5064496;28;20020;-37
2022/12/21 09:00:39;;;;;;;64.90;27.98;;;;;;;6.00;100.00;101002.66;5064160;28;20032;-37
2022/12/21 09:03:06;;;;;;;62.63;25.33;;;;;;;6.05;100.00;101007.56;5070860;28;20028;-37
2022/12/21 09:05:32;;;;;;;67.05;23.90;;;;;;;6.13;100.00;101002.31;5072462;28;20058;-37
2022/12/21 09:07:57;;;;;;;53.58;24.88;;;;;;;6.22;100.00;101005.94;5070914;28;20082;-37
2022/12/21 09:10:23;;;;;;;60.95;22.27;;;;;;;6.26;100.00;101001.97;5079074;28;20074;-36
2022/12/21 09:12:48;;;;;;;44.53;20.40;;;;;;;6.30;100.00;101001.53;5062932;28;20021;-39
2022/12/21 09:15:14;;;;;;;53.63;19.98;;;;;;;6.33;100.00;100993.19;5062571;28;20020;-36
2022/12/21 09:17:39;;;;;;;48.78;17.80;;;;;;;6.33;100.00;100993.19;5088338;28;20035;-38
2022/12/21 09:20:05;;;;;;;44.88;17.55;;;;;;;6.30;100.00;100993.50;5072593;28;20967;-37
2022/12/21 09:22:31;;;;;;;39.22;15.95;;;;;;;6.30;100.00;101000.69;5069682;28;20028;-38
2022/12/21 09:24:56;;;;;;;49.33;16.83;;;;;;;6.34;100.00;100992.19;5092114;28;20036;-35
2022/12/21 09:27:21;;;;;;;38.30;14.82;;;;;;;6.34;100.00;100988.69;5092957;28;20052;-38
2022/12/21 09:29:47;;;;;;;41.10;15.68;;;;;;;6.46;100.00;100992.84;5072838;28;20063;-35
2022/12/21 09:32:12;;;;;;;37.55;14.57;;;;;;;6.71;100.00;100995.75;5059444;28;20037;-38
2022/12/21 09:34:38;;;;;;;35.20;13.52;;;;;;;6.92;100.00;100990.91;5064491;28;20380;-35
2022/12/21 09:37:03;;;;;;;33.92;12.48;;;;;;;7.23;100.00;100985.13;5064629;28;20039;-37
2022/12/21 09:39:28;;;;;;;29.05;10.85;;;;;;;7.40;100.00;100991.47;5058212;28;20120;-38
2022/12/21 09:41:57;;;;;;;21.58;10.48;;;;;;;7.67;100.00;100990.44;5052040;28;20049;-35
2022/12/21 09:44:47;;;;;;;29.70;9.55;;;;;;;7.53;100.00;100978.47;5061282;28;20937;-36
2022/12/21 09:47:18;;;;;;;37.45;9.77;;;;;;;7.33;100.00;100968.97;5058860;28;20043;-38
2022/12/21 09:49:52;;;;;;;32.88;10.07;;;;;;;7.26;100.00;100974.94;5062752;28;20123;-35
2022/12/21 09:52:24;;;;;;;25.85;9.25;;;;;;;7.11;100.00;100973.00;5070974;28;20037;-35
2022/12/21 09:55:03;;;;;;;31.48;9.35;;;;;;;7.11;100.00;100973.84;5068221;28;20024;-37
2022/12/21 09:57:35;;;;;;;25.33;10.00;;;;;;;7.11;100.00;100971.19;5066505;28;20039;-35
2022/12/21 10:00:03;;;;;;;35.28;11.52;;;;;;;7.04;100.00;100972.78;5063912;28;20099;-38
2022/12/21 10:02:39;;;;;;;;;;;;;;;7.02;100.00;100969.41;5050323;28;20094;-36
2022/12/21 10:05:26;;;;;;;34.85;11.38;;;;;;;7.07;100.00;100969.78;5063310;28;19912;-37
2022/12/21 10:08:06;;;;;;;33.08;11.15;;;;;;;7.09;100.00;100975.84;5066959;28;20032;-38
2022/12/21 10:11:10;;;;;;;32.08;11.90;;;;;;;7.00;100.00;100976.75;5066320;28;20032;-36
2022/12/21 10:13:50;;;;;;;38.22;12.52;;;;;;;7.00;100.00;100982.13;5046590;28;20045;-37
2022/12/21 10:16:22;;;;;;;34.25;13.98;;;;;;;6.98;100.00;100984.13;5064865;28;20036;-38
2022/12/21 10:19:16;;;;;;;41.05;14.98;;;;;;;6.86;100.00;100998.72;5068200;28;20047;-36
2022/12/21 10:22:03;;;;;;;42.15;16.60;;;;;;;6.89;100.00;101001.09;5068086;28;20074;-39
2022/12/21 10:24:34;;;;;;;51.42;17.83;;;;;;;6.82;100.00;101011.59;5067258;28;20032;-36
2022/12/21 10:27:20;;;;;;;44.20;16.98;;;;;;;6.79;100.00;101015.41;5047639;28;20206;-36
2022/12/21 10:29:49;;;;;;;43.75;17.02;;;;;;;6.92;100.00;101009.63;5061750;28;20507;-36
2022/12/21 10:32:14;;;;;;;49.08;17.30;;;;;;;6.90;100.00;101010.78;5071135;28;20032;-36
2022/12/21 10:34:47;;;;;;;36.85;16.95;;;;;;;6.90;100.00;101000.09;5066093;28;20029;-35
2022/12/21 10:37:18;;;;;;;47.92;17.83;;;;;;;6.91;100.00;101002.63;5058832;28;20039;-35
2022/12/21 10:39:45;;;;;;;41.25;16.70;;;;;;;7.05;100.00;101006.56;5058058;28;20445;-35
2022/12/21 10:42:36;;;;;;;44.70;16.75;;;;;;;7.25;100.00;100996.53;5064263;28;20052;-38
2022/12/21 10:45:01;;;;;;;40.38;16.60;;;;;;;7.38;100.00;100998.81;5053293;28;20028;-37
2022/12/21 10:47:26;;;;;;;38.42;15.98;;;;;;;7.44;100.00;100992.81;5060182;28;20025;-37
2022/12/21 10:50:08;;;;;;;40.15;14.73;;;;;;;7.46;100.00;100990.81;5050395;28;20064;-36
2022/12/21 10:52:38;;;;;;;42.47;15.95;;;;;;;7.49;100.00;100979.78;5051875;28;20037;-39
2022/12/21 10:55:24;;;;;;;37.92;15.80;;;;;;;7.38;100.00;100977.38;5054891;28;20479;-36
2022/12/21 10:58:00;;;;;;;32.53;15.75;;;;;;;7.24;100.00;100981.44;5062545;28;20020;-36
2022/12/21 11:00:25;;;;;;;48.60;18.17;;;;;;;7.18;100.00;100982.91;5069673;28;20025;-37
2022/12/21 11:02:52;;;;;;;39.58;16.35;;;;;;;7.17;100.00;100981.25;5070236;28;20105;-37
2022/12/21 11:05:33;;;;;;;38.70;16.90;;;;;;;7.14;100.00;100976.22;5070583;28;20078;-36
2022/12/21 11:08:13;;;;;;;46.45;16.92;;;;;;;7.11;100.00;100973.84;5069005;28;20062;-37
2022/12/21 11:10:47;;;;;;;40.33;16.15;;;;;;;7.04;100.00;100978.97;5068985;28;20024;-37
2022/12/21 11:13:13;;;;;;;38.17;15.82;;;;;;;7.03;100.00;100974.63;5068979;28;20111;-37
2022/12/21 11:15:53;;;;;;;46.83;17.75;;;;;;;7.04;100.00;100978.16;5068950;28;20537;-37
2022/12/21 11:18:26;;;;;;;42.47;16.58;;;;;;;6.99;100.00;100983.13;5069128;28;20051;-37
2022/12/21 11:20:52;;;;;;;40.30;16.67;;;;;;;6.94;100.00;100964.84;5069546;28;20029;-36
2022/12/21 11:23:17;;;;;;;42.55;15.75;;;;;;;6.97;100.00;100972.56;5069130;28;20222;-38
2022/12/21 11:25:42;;;;;;;39.63;16.60;;;;;;;6.90;100.00;100971.53;5068713;28;20081;-38
2022/12/21 11:28:08;;;;;;;36.25;17.33;;;;;;;6.93;100.00;100970.38;5070320;28;20044;-36
2022/12/21 11:30:35;;;;;;;47.78;16.85;;;;;;;6.85;100.00;100954.25;5070159;28;20460;-36
2022/12/21 11:33:01;;;;;;;40.17;17.35;;;;;;;6.88;100.00;100953.94;5052350;28;20062;-38
2022/12/21 11:35:27;;;;;;;47.00;18.88;;;;;;;6.95;100.00;100960.31;5070482;28;20107;-39
2022/12/21 11:38:08;;;;;;;39.38;17.70;;;;;;;7.06;100.00;100946.72;5070705;28;20029;-38